Time;durP1;ratioP1;P1;durP2;ratioP2;P2;SDS_P1;SDS_P2;PMS_P1;PMS_P2;Temp;Humidity;BMP_temperature;BMP_pressure;BME280_temperature;BME280_humidity;BME280_pressure;Samples;Min_cycle;Max_cycle;Signal;HPM_P1;HPM_P2
2021/08/18 00:01:17;;;;;;;12.50;7.78;;;15.30;99.90;;;;;;5016092;28;20021;-78
2021/08/18 00:03:43;;;;;;;13.32;8.48;;;15.30;99.90;;;;;;5014744;28;20042;-78
2021/08/18 00:06:10;;;;;;;16.08;8.35;;;15.30;99.90;;;;;;5032436;28;20017;-78
2021/08/18 00:08:35;;;;;;;14.48;8.10;;;15.30;99.90;;;;;;5016353;28;20114;-78
2021/08/18 00:11:01;;;;;;;15.20;8.55;;;15.20;99.90;;;;;;5037604;28;20094;-79
2021/08/18 00:13:27;;;;;;;15.23;8.20;;;15.40;99.90;;;;;;5031073;28;20026;-76
2021/08/18 00:15:56;;;;;;;14.40;8.20;;;15.20;99.90;;;;;;5028514;28;20026;-80
2021/08/18 00:18:22;;;;;;;15.38;8.25;;;15.30;99.90;;;;;;5037154;28;20025;-80
2021/08/18 00:20:47;;;;;;;13.70;8.85;;;15.30;99.90;;;;;;5015267;28;20025;-79
2021/08/18 00:23:13;;;;;;;14.85;7.88;;;15.30;99.90;;;;;;5014106;28;20156;-79
2021/08/18 00:25:39;;;;;;;15.85;8.27;;;15.30;99.90;;;;;;5017484;28;20179;-75
2021/08/18 00:28:05;;;;;;;15.30;8.70;;;15.40;99.90;;;;;;5034022;28;20029;-78
2021/08/18 00:30:30;;;;;;;13.88;7.50;;;15.40;99.90;;;;;;5049273;28;20022;-77
2021/08/18 00:32:56;;;;;;;13.63;7.82;;;15.40;99.90;;;;;;5039625;28;20025;-77
2021/08/18 00:35:22;;;;;;;15.30;8.27;;;15.50;99.90;;;;;;5049399;28;20029;-78
2021/08/18 00:37:48;;;;;;;16.73;8.20;;;15.50;99.90;;;;;;5013992;28;20018;-78
2021/08/18 00:40:15;;;;;;;11.90;6.85;;;15.50;99.90;;;;;;5039241;28;20018;-78
2021/08/18 00:42:44;;;;;;;13.63;7.32;;;15.50;99.90;;;;;;5033535;28;20071;-80
2021/08/18 00:45:11;;;;;;;13.20;6.78;;;15.50;99.90;;;;;;5016736;28;20017;-78
2021/08/18 00:47:51;;;;;;;12.70;7.28;;;15.50;99.90;;;;;;5034604;28;20036;-76
2021/08/18 00:50:20;;;;;;;11.65;6.78;;;15.50;99.90;;;;;;5027786;28;20216;-78
2021/08/18 00:52:46;;;;;;;15.75;7.15;;;;;;;;;;5011492;28;20041;-77
2021/08/18 00:55:19;;;;;;;11.55;6.57;;;15.60;99.90;;;;;;5010027;28;20145;-77
2021/08/18 00:57:45;;;;;;;11.77;6.95;;;15.60;99.90;;;;;;5030283;28;20026;-76
2021/08/18 01:00:15;;;;;;;10.15;6.82;;;15.60;99.90;;;;;;5032352;28;20097;-78
2021/08/18 01:02:46;;;;;;;;;;;15.60;99.90;;;;;;5023126;28;20021;-78
2021/08/18 01:05:20;;;;;;;12.52;6.72;;;15.60;99.90;;;;;;5025091;28;20272;-78
2021/08/18 01:07:47;;;;;;;11.30;7.20;;;15.60;99.90;;;;;;5035369;28;20131;-79
2021/08/18 01:10:17;;;;;;;9.60;6.57;;;15.60;99.90;;;;;;5035054;28;20013;-76
2021/08/18 01:12:43;;;;;;;11.07;5.87;;;15.50;99.90;;;;;;5022186;28;20026;-78
2021/08/18 01:15:12;;;;;;;12.18;6.30;;;15.60;99.90;;;;;;5025573;28;20084;-78
2021/08/18 01:17:44;;;;;;;12.80;6.40;;;15.60;99.90;;;;;;5024316;28;20030;-78
2021/08/18 01:20:14;;;;;;;10.18;6.25;;;15.50;99.90;;;;;;5014514;28;20116;-79
2021/08/18 01:22:41;;;;;;;10.10;6.70;;;15.50;99.90;;;;;;5005830;28;20021;-78
2021/08/18 01:25:08;;;;;;;11.68;6.72;;;15.50;99.90;;;;;;5005595;28;20029;-79
2021/08/18 01:27:35;;;;;;;11.05;6.13;;;15.50;99.90;;;;;;5024751;28;20041;-79
2021/08/18 01:30:01;;;;;;;9.75;5.68;;;15.50;99.90;;;;;;5030243;28;20014;-78
2021/08/18 01:32:26;;;;;;;9.40;5.88;;;15.50;99.90;;;;;;5007818;28;20026;-78
2021/08/18 01:34:52;;;;;;;10.48;6.10;;;15.50;99.90;;;;;;5029751;28;20042;-79
2021/08/18 01:37:18;;;;;;;8.88;5.88;;;15.50;99.90;;;;;;5015435;28;20029;-78
2021/08/18 01:39:43;;;;;;;10.25;6.38;;;15.50;99.90;;;;;;5021339;28;20018;-78
2021/08/18 01:42:09;;;;;;;9.02;5.85;;;15.40;99.90;;;;;;5013291;28;20033;-79
2021/08/18 01:44:34;;;;;;;11.57;6.18;;;15.90;99.90;;;;;;5027967;28;20026;-78
2021/08/18 01:47:00;;;;;;;10.38;6.13;;;15.40;99.90;;;;;;5033063;28;20025;-79
2021/08/18 01:49:27;;;;;;;10.52;5.95;;;16.80;99.90;;;;;;5017580;28;20085;-76
2021/08/18 01:51:54;;;;;;;9.93;5.38;;;15.50;99.90;;;;;;5012288;28;20025;-78
2021/08/18 01:54:19;;;;;;;10.00;5.38;;;15.50;99.90;;;;;;5014348;28;20075;-76
2021/08/18 01:56:45;;;;;;;10.77;5.85;;;15.50;99.90;;;;;;5031368;28;20029;-79
2021/08/18 01:59:10;;;;;;;8.82;5.40;;;15.50;99.90;;;;;;5009875;28;20138;-79
2021/08/18 02:01:36;;;;;;;7.43;4.78;;;15.50;99.90;;;;;;5030408;28;20418;-76
2021/08/18 02:04:02;;;;;;;8.27;5.22;;;16.20;99.90;;;;;;5009763;28;20083;-77
2021/08/18 02:06:31;;;;;;;9.50;4.95;;;15.50;99.90;;;;;;5006486;28;20018;-77
2021/08/18 02:08:56;;;;;;;9.68;5.63;;;15.50;99.90;;;;;;5029708;28;20018;-78
2021/08/18 02:11:22;;;;;;;7.03;4.70;;;17.70;99.90;;;;;;5013752;28;20026;-78
2021/08/18 02:13:49;;;;;;;8.57;4.93;;;15.60;99.90;;;;;;5016527;28;20499;-79
2021/08/18 02:16:14;;;;;;;6.55;4.35;;;15.50;99.90;;;;;;5007954;28;20085;-78
2021/08/18 02:18:40;;;;;;;7.65;4.38;;;15.50;99.90;;;;;;5029184;28;20553;-79
2021/08/18 02:21:06;;;;;;;7.55;4.43;;;;;;;;;;5032892;28;20041;-78
2021/08/18 02:23:32;;;;;;;6.13;4.20;;;15.60;99.90;;;;;;5031909;28;20371;-79
2021/08/18 02:25:57;;;;;;;6.90;3.92;;;15.60;99.90;;;;;;5009368;28;20028;-78
2021/08/18 02:28:23;;;;;;;8.25;4.68;;;15.60;99.90;;;;;;5025790;28;20030;-76
2021/08/18 02:30:49;;;;;;;8.95;4.93;;;15.60;99.90;;;;;;5002060;28;20017;-78
2021/08/18 02:33:15;;;;;;;6.97;4.00;;;15.60;99.90;;;;;;5010221;28;20049;-77
2021/08/18 02:35:41;;;;;;;6.60;3.92;;;;;;;;;;5021209;28;20018;-78
2021/08/18 02:38:07;;;;;;;6.45;4.15;;;15.60;99.90;;;;;;5028660;28;20026;-78
2021/08/18 02:40:33;;;;;;;5.40;4.10;;;15.60;99.90;;;;;;5021445;28;20029;-78
2021/08/18 02:43:00;;;;;;;5.32;3.33;;;15.50;99.90;;;;;;5015208;28;20032;-77
2021/08/18 02:45:28;;;;;;;5.60;2.92;;;15.50;99.90;;;;;;5031958;28;20107;-78
2021/08/18 02:47:54;;;;;;;5.22;3.50;;;16.00;99.90;;;;;;5029343;28;20030;-79
2021/08/18 02:50:22;;;;;;;5.95;3.35;;;15.50;99.90;;;;;;5008248;28;20021;-79
2021/08/18 02:52:48;;;;;;;5.05;3.40;;;15.50;99.90;;;;;;5007306;28;20096;-78
2021/08/18 02:55:14;;;;;;;4.82;3.22;;;15.60;99.90;;;;;;5030587;28;20345;-78
2021/08/18 02:57:39;;;;;;;5.05;3.08;;;15.60;99.90;;;;;;5006826;28;20089;-78
2021/08/18 03:00:07;;;;;;;7.57;3.63;;;15.50;99.90;;;;;;5012047;28;20092;-78
2021/08/18 03:02:33;;;;;;;4.82;3.17;;;15.60;99.90;;;;;;5004331;28;20093;-79
2021/08/18 03:04:58;;;;;;;7.35;2.88;;;15.90;99.90;;;;;;5012513;28;20057;-80
2021/08/18 03:07:24;;;;;;;5.68;3.20;;;15.40;99.90;;;;;;5025258;28;20375;-80
2021/08/18 03:09:50;;;;;;;5.15;3.20;;;15.50;99.90;;;;;;5012601;28;20029;-77
2021/08/18 03:12:15;;;;;;;6.10;3.50;;;15.50;99.90;;;;;;5018636;28;20474;-78
2021/08/18 03:14:41;;;;;;;4.72;3.13;;;15.40;99.90;;;;;;5036291;28;20018;-79
2021/08/18 03:17:07;;;;;;;4.70;3.20;;;15.60;99.90;;;;;;5008200;28;20035;-79
2021/08/18 03:19:33;;;;;;;5.88;3.08;;;15.50;99.90;;;;;;5030898;28;20409;-80
2021/08/18 03:21:58;;;;;;;4.85;2.97;;;15.50;99.90;;;;;;5007893;28;20021;-77
2021/08/18 03:24:24;;;;;;;4.75;2.72;;;15.50;99.90;;;;;;5021836;28;20045;-79
2021/08/18 03:26:50;;;;;;;4.88;3.00;;;14.70;99.90;;;;;;5037758;28;20092;-76
2021/08/18 03:29:16;;;;;;;5.05;2.80;;;;;;;;;;5006050;28;20387;-78
2021/08/18 03:31:42;;;;;;;4.53;2.90;;;;;;;;;;5030062;28;20116;-79
2021/08/18 03:34:08;;;;;;;4.35;2.80;;;;;;;;;;5004856;28;20060;-78
2021/08/18 03:36:34;;;;;;;4.38;2.83;;;15.50;99.90;;;;;;5027175;28;20049;-78
2021/08/18 03:39:00;;;;;;;5.18;3.40;;;15.50;99.90;;;;;;5018913;28;20051;-81
2021/08/18 03:41:25;;;;;;;5.18;3.22;;;15.50;99.90;;;;;;5019013;28;20111;-78
2021/08/18 03:43:51;;;;;;;7.28;3.20;;;15.40;99.90;;;;;;5033585;28;20018;-78
2021/08/18 03:46:17;;;;;;;5.70;3.22;;;15.40;99.90;;;;;;5036479;28;20025;-81
2021/08/18 03:48:42;;;;;;;6.85;3.58;;;15.90;99.90;;;;;;5032420;28;20125;-81
2021/08/18 03:51:08;;;;;;;6.75;2.95;;;16.00;99.90;;;;;;5036466;28;20037;-79
2021/08/18 03:53:34;;;;;;;5.68;3.40;;;15.50;99.90;;;;;;5024223;28;20048;-78
2021/08/18 03:55:59;;;;;;;5.35;3.13;;;15.50;99.90;;;;;;5014874;28;20056;-78
2021/08/18 03:58:25;;;;;;;6.07;3.00;;;15.50;99.90;;;;;;5009116;28;20079;-78
2021/08/18 04:00:51;;;;;;;5.20;3.10;;;;;;;;;;5018166;28;20025;-78
2021/08/18 04:03:17;;;;;;;5.55;3.13;;;15.50;99.90;;;;;;5027036;28;20025;-78
2021/08/18 04:05:43;;;;;;;4.93;3.42;;;15.40;99.90;;;;;;5015123;28;20017;-76
2021/08/18 04:08:08;;;;;;;5.03;3.03;;;15.40;99.90;;;;;;5033543;28;20030;-78
2021/08/18 04:10:35;;;;;;;4.47;3.08;;;15.40;99.90;;;;;;5028042;28;20052;-76
2021/08/18 04:13:01;;;;;;;5.07;3.20;;;15.40;99.90;;;;;;5021717;28;20463;-79
2021/08/18 04:15:38;;;;;;;4.88;3.13;;;15.40;99.90;;;;;;5010688;28;20049;-77
2021/08/18 04:18:05;;;;;;;5.60;3.13;;;15.50;99.90;;;;;;5017651;28;20296;-78
2021/08/18 04:20:31;;;;;;;6.57;3.60;;;;;;;;;;5030073;28;20398;-77
2021/08/18 04:22:57;;;;;;;5.93;3.25;;;15.50;99.90;;;;;;5025237;28;20123;-78
2021/08/18 04:25:22;;;;;;;5.43;3.10;;;15.50;99.90;;;;;;5033532;28;20029;-78
2021/08/18 04:27:48;;;;;;;6.63;4.00;;;15.50;99.90;;;;;;5012897;28;20093;-77
2021/08/18 04:30:16;;;;;;;6.55;4.25;;;15.60;99.90;;;;;;5034557;28;20487;-78
2021/08/18 04:32:42;;;;;;;6.22;3.88;;;15.50;99.90;;;;;;5027287;28;20013;-77
2021/08/18 04:35:09;;;;;;;6.07;4.10;;;15.50;99.90;;;;;;5013980;28;20033;-78
2021/08/18 04:37:38;;;;;;;7.20;3.90;;;15.50;99.90;;;;;;5014848;28;20048;-78
2021/08/18 04:40:06;;;;;;;6.30;4.50;;;15.50;99.90;;;;;;5012339;28;20022;-76
2021/08/18 04:42:39;;;;;;;7.88;4.60;;;15.50;99.90;;;;;;5011381;28;20399;-78
2021/08/18 04:45:07;;;;;;;6.25;4.40;;;15.50;99.90;;;;;;5027641;28;20031;-77
2021/08/18 04:47:33;;;;;;;6.45;4.55;;;15.50;99.90;;;;;;5013622;28;20057;-77
2021/08/18 04:49:59;;;;;;;8.68;4.28;;;15.50;99.90;;;;;;5028622;28;20426;-78
2021/08/18 04:52:24;;;;;;;7.68;4.50;;;15.60;99.90;;;;;;5017810;28;20042;-78
2021/08/18 04:54:50;;;;;;;6.78;4.25;;;15.50;99.90;;;;;;5025937;28;20025;-79
2021/08/18 04:57:16;;;;;;;7.03;4.10;;;15.50;99.90;;;;;;5010505;28;20113;-78
2021/08/18 04:59:42;;;;;;;6.05;3.70;;;15.60;99.90;;;;;;5012499;28;20087;-79
2021/08/18 05:02:07;;;;;;;6.18;4.35;;;15.60;99.90;;;;;;5013974;28;20041;-77
2021/08/18 05:04:33;;;;;;;8.88;4.50;;;;;;;;;;5010947;28;20034;-80
2021/08/18 05:06:59;;;;;;;6.28;4.10;;;15.60;99.90;;;;;;5030112;28;20107;-77
2021/08/18 05:09:25;;;;;;;8.43;4.57;;;;;;;;;;5019200;28;20032;-77
2021/08/18 05:11:51;;;;;;;7.10;4.20;;;15.60;99.90;;;;;;5028561;28;20026;-78
2021/08/18 05:14:16;;;;;;;6.15;4.05;;;15.60;99.90;;;;;;5033570;28;20440;-78
2021/08/18 05:16:42;;;;;;;8.05;4.13;;;15.60;99.90;;;;;;5028492;28;20107;-80
2021/08/18 05:19:07;;;;;;;8.38;4.75;;;15.50;99.90;;;;;;5015996;28;20033;-79
2021/08/18 05:21:33;;;;;;;8.05;4.25;;;18.50;99.90;;;;;;5033110;28;20033;-79
2021/08/18 05:23:59;;;;;;;7.75;4.03;;;15.60;99.90;;;;;;5011382;28;20076;-77
2021/08/18 05:26:26;;;;;;;6.82;3.83;;;;;;;;;;5005096;28;20029;-79
2021/08/18 05:28:52;;;;;;;7.57;4.30;;;15.60;99.90;;;;;;5032452;28;20037;-77
2021/08/18 05:31:17;;;;;;;6.85;4.32;;;15.60;99.90;;;;;;5009745;28;20075;-78
2021/08/18 05:33:43;;;;;;;8.50;5.03;;;15.60;99.90;;;;;;5032494;28;20037;-78
2021/08/18 05:36:09;;;;;;;7.70;4.10;;;15.60;99.90;;;;;;5027584;28;20075;-77
2021/08/18 05:38:34;;;;;;;8.55;4.63;;;15.70;99.90;;;;;;5014977;28;20022;-78
2021/08/18 05:41:00;;;;;;;7.35;4.45;;;15.70;99.90;;;;;;5027695;28;20483;-76
2021/08/18 05:43:29;;;;;;;7.55;4.28;;;15.70;99.90;;;;;;5013231;28;20566;-78
2021/08/18 05:45:54;;;;;;;7.53;4.55;;;15.70;99.90;;;;;;5012230;28;20027;-78
2021/08/18 05:48:20;;;;;;;6.95;4.25;;;15.70;99.90;;;;;;5007126;28;20021;-78
2021/08/18 05:50:46;;;;;;;10.00;5.35;;;15.70;99.90;;;;;;5013766;28;20025;-76
2021/08/18 05:53:18;;;;;;;6.95;4.85;;;16.70;99.90;;;;;;5015494;28;20079;-78
2021/08/18 05:55:45;;;;;;;7.10;4.30;;;16.20;99.90;;;;;;5029304;28;20022;-76
2021/08/18 05:58:11;;;;;;;7.78;4.47;;;15.90;99.90;;;;;;5011561;28;20021;-77
2021/08/18 06:00:36;;;;;;;7.65;4.15;;;15.90;99.90;;;;;;5017012;28;20036;-80
2021/08/18 06:03:02;;;;;;;5.88;3.97;;;15.90;99.90;;;;;;5011398;28;20030;-79
2021/08/18 06:05:29;;;;;;;6.30;3.90;;;16.00;99.90;;;;;;5026780;28;20030;-79
2021/08/18 06:07:55;;;;;;;8.05;4.18;;;16.00;99.90;;;;;;5010505;28;20029;-78
2021/08/18 06:10:20;;;;;;;7.32;4.55;;;16.10;99.90;;;;;;5011389;28;20033;-79
2021/08/18 06:12:46;;;;;;;6.78;4.18;;;16.10;99.90;;;;;;5025359;28;20021;-80
2021/08/18 06:15:12;;;;;;;6.57;4.15;;;16.10;99.90;;;;;;5010908;28;20018;-79
2021/08/18 06:17:38;;;;;;;6.00;3.53;;;16.20;99.90;;;;;;5010225;28;20206;-80
2021/08/18 06:20:05;;;;;;;7.07;3.90;;;16.80;99.90;;;;;;5020985;28;20101;-81
2021/08/18 06:22:30;;;;;;;6.43;3.65;;;16.30;99.90;;;;;;5031100;28;20532;-80
2021/08/18 06:24:58;;;;;;;6.35;3.60;;;16.40;99.90;;;;;;5033218;28;20026;-79
2021/08/18 06:27:25;;;;;;;6.07;3.70;;;16.40;99.90;;;;;;5029297;28;20059;-78
2021/08/18 06:29:51;;;;;;;6.20;3.75;;;16.40;99.90;;;;;;5030206;28;20033;-79
2021/08/18 06:32:17;;;;;;;5.97;3.75;;;18.20;99.90;;;;;;5019469;28;20025;-82
2021/08/18 06:34:42;;;;;;;5.35;3.30;;;16.40;99.90;;;;;;5012723;28;20494;-81
2021/08/18 06:37:08;;;;;;;5.82;3.00;;;16.60;99.90;;;;;;5017701;28;20033;-81
2021/08/18 06:39:34;;;;;;;5.93;3.30;;;16.50;99.90;;;;;;5007459;28;20030;-78
2021/08/18 06:42:00;;;;;;;6.90;3.50;;;16.90;99.90;;;;;;5007580;28;20025;-79
2021/08/18 06:44:27;;;;;;;5.57;3.20;;;16.50;99.90;;;;;;5010796;28;20505;-79
2021/08/18 06:46:52;;;;;;;4.93;3.55;;;16.60;99.90;;;;;;5025912;28;20034;-80
2021/08/18 06:49:18;;;;;;;5.18;3.03;;;16.50;99.90;;;;;;5023177;28;20009;-79
2021/08/18 06:51:44;;;;;;;5.88;3.30;;;16.50;99.90;;;;;;5010547;28;20034;-79
2021/08/18 06:54:10;;;;;;;6.15;3.40;;;16.40;99.90;;;;;;5004217;28;20032;-78
2021/08/18 06:56:38;;;;;;;5.30;3.05;;;16.40;99.90;;;;;;5027157;28;20026;-78
2021/08/18 06:59:04;;;;;;;5.50;2.70;;;18.10;99.90;;;;;;5006298;28;20032;-80
2021/08/18 07:01:30;;;;;;;4.70;3.22;;;17.60;99.90;;;;;;5025451;28;20414;-78
2021/08/18 07:03:55;;;;;;;6.13;3.10;;;16.30;99.90;;;;;;5008636;28;20113;-78
2021/08/18 07:06:21;;;;;;;7.63;2.97;;;16.40;99.90;;;;;;5013210;28;20017;-79
2021/08/18 07:08:47;;;;;;;4.38;2.90;;;16.40;99.90;;;;;;5017226;28;20036;-78
2021/08/18 07:11:12;;;;;;;6.65;3.28;;;17.70;99.90;;;;;;5018915;28;20026;-78
2021/08/18 07:13:39;;;;;;;5.22;2.88;;;16.50;99.90;;;;;;5006646;28;20022;-78
2021/08/18 07:16:05;;;;;;;4.28;2.60;;;16.50;99.90;;;;;;5008251;28;20029;-79
2021/08/18 07:18:31;;;;;;;5.10;2.85;;;;;;;;;;5040313;28;20035;-78
2021/08/18 07:20:56;;;;;;;5.40;3.05;;;16.50;99.90;;;;;;5028931;28;20112;-77
2021/08/18 07:23:22;;;;;;;5.35;2.70;;;16.60;99.90;;;;;;5033789;28;20029;-77
2021/08/18 07:25:48;;;;;;;4.40;2.40;;;18.50;99.90;;;;;;5031494;28;20022;-78
2021/08/18 07:28:14;;;;;;;5.65;2.78;;;16.60;99.90;;;;;;5028076;28;20048;-78
2021/08/18 07:30:39;;;;;;;4.47;2.58;;;18.30;99.90;;;;;;5025034;28;20018;-76
2021/08/18 07:33:05;;;;;;;5.05;2.67;;;16.60;99.90;;;;;;5033514;28;20033;-78
2021/08/18 07:35:31;;;;;;;5.40;2.30;;;16.70;99.90;;;;;;5007680;28;20018;-78
2021/08/18 07:37:56;;;;;;;3.55;2.10;;;16.80;99.90;;;;;;5015989;28;20493;-78
2021/08/18 07:40:23;;;;;;;3.53;2.33;;;17.10;99.90;;;;;;5008491;28;20021;-78
2021/08/18 07:42:49;;;;;;;4.55;2.08;;;17.10;99.90;;;;;;5028039;28;20013;-78
2021/08/18 07:45:14;;;;;;;3.30;2.00;;;18.40;99.90;;;;;;5029808;28;20021;-78
2021/08/18 07:47:40;;;;;;;2.72;1.80;;;17.20;99.90;;;;;;5010393;28;20028;-78
2021/08/18 07:50:07;;;;;;;4.60;2.35;;;17.40;99.90;;;;;;5031555;28;20521;-78
2021/08/18 07:52:32;;;;;;;3.60;2.10;;;17.50;99.90;;;;;;5013504;28;20033;-78
2021/08/18 07:54:58;;;;;;;3.08;1.50;;;17.50;99.90;;;;;;5014038;28;20517;-76
2021/08/18 07:57:23;;;;;;;4.25;1.70;;;17.40;99.90;;;;;;5029747;28;20052;-75
2021/08/18 07:59:51;;;;;;;2.85;1.65;;;17.90;99.90;;;;;;5017164;28;20025;-77
2021/08/18 08:02:20;;;;;;;1.60;1.10;;;18.90;99.90;;;;;;5029228;28;20078;-78
2021/08/18 08:04:47;;;;;;;2.03;1.10;;;19.40;99.90;;;;;;5024418;28;20026;-78
2021/08/18 08:07:13;;;;;;;1.83;1.10;;;17.80;99.90;;;;;;5029589;28;20029;-78
2021/08/18 08:09:39;;;;;;;1.92;1.10;;;17.80;99.90;;;;;;5030936;28;20526;-75
2021/08/18 08:12:05;;;;;;;1.42;0.73;;;17.90;99.90;;;;;;5016209;28;20018;-78
2021/08/18 08:14:31;;;;;;;2.33;1.00;;;;;;;;;;5016319;28;20022;-76
2021/08/18 08:16:57;;;;;;;2.05;1.10;;;17.90;99.90;;;;;;5032039;28;20469;-76
2021/08/18 08:19:22;;;;;;;1.33;0.82;;;17.80;99.90;;;;;;5009624;28;20025;-78
2021/08/18 08:21:48;;;;;;;1.30;0.93;;;17.90;99.90;;;;;;5032081;28;20445;-79
2021/08/18 08:24:14;;;;;;;1.70;1.10;;;17.90;99.90;;;;;;5035678;28;20025;-76
2021/08/18 08:26:39;;;;;;;1.52;1.00;;;19.30;99.90;;;;;;5026630;28;20517;-79
2021/08/18 08:29:05;;;;;;;0.90;0.80;;;18.00;99.90;;;;;;5008643;28;20109;-78
2021/08/18 08:31:31;;;;;;;4.72;1.30;;;18.00;99.90;;;;;;5009429;28;20683;-79
2021/08/18 08:33:56;;;;;;;1.35;0.90;;;18.00;99.90;;;;;;5033339;28;20013;-78
2021/08/18 08:36:22;;;;;;;1.90;1.00;;;18.10;99.90;;;;;;5012291;28;20025;-77
2021/08/18 08:38:47;;;;;;;1.10;0.90;;;18.20;99.90;;;;;;5029970;28;20025;-77
2021/08/18 08:41:15;;;;;;;2.03;1.30;;;18.30;99.90;;;;;;5030720;28;20018;-77
2021/08/18 08:43:41;;;;;;;1.00;0.80;;;;;;;;;;5014682;28;20025;-78
2021/08/18 08:46:07;;;;;;;2.78;1.00;;;18.40;99.90;;;;;;5026104;28;20025;-77
2021/08/18 08:48:34;;;;;;;2.17;1.52;;;18.30;99.90;;;;;;5032170;28;20033;-79
2021/08/18 08:51:01;;;;;;;2.20;1.00;;;18.30;99.90;;;;;;5010752;28;20018;-79
2021/08/18 08:53:29;;;;;;;1.60;0.90;;;18.20;99.90;;;;;;5024393;28;20112;-80
2021/08/18 08:55:54;;;;;;;1.20;0.70;;;18.20;99.90;;;;;;5029003;28;20053;-76
2021/08/18 08:58:20;;;;;;;1.27;0.90;;;18.20;99.90;;;;;;5009764;28;20056;-77
2021/08/18 09:00:46;;;;;;;1.52;0.95;;;18.30;99.90;;;;;;5029948;28;20034;-77
2021/08/18 09:03:16;;;;;;;1.25;0.77;;;19.20;99.90;;;;;;5012411;28;20021;-78
2021/08/18 09:05:43;;;;;;;1.75;1.00;;;18.30;99.90;;;;;;5010976;28;20546;-77
2021/08/18 09:08:11;;;;;;;0.65;0.52;;;18.30;99.90;;;;;;5014410;28;20037;-75
2021/08/18 09:10:38;;;;;;;1.83;0.82;;;18.40;99.90;;;;;;5006719;28;20032;-76
2021/08/18 09:13:15;;;;;;;2.63;1.33;;;18.40;99.90;;;;;;5003535;28;20029;-75
2021/08/18 09:15:42;;;;;;;1.40;0.95;;;18.30;99.90;;;;;;5031079;28;20018;-77
2021/08/18 09:18:08;;;;;;;1.33;0.95;;;18.40;99.90;;;;;;5019394;28;20025;-76
2021/08/18 09:20:38;;;;;;;1.50;0.98;;;18.40;99.90;;;;;;5010199;28;20026;-77
2021/08/18 09:23:04;;;;;;;2.58;0.85;;;18.40;99.90;;;;;;5013721;28;20025;-77
2021/08/18 09:25:39;;;;;;;5.18;2.92;;;19.00;99.90;;;;;;5016257;28;20037;-78
2021/08/18 09:28:04;;;;;;;2.47;1.00;;;18.40;99.90;;;;;;5032333;28;20495;-78
2021/08/18 09:30:36;;;;;;;1.30;0.80;;;18.30;99.90;;;;;;5007110;28;20037;-78
2021/08/18 09:33:11;;;;;;;2.35;1.20;;;18.40;99.90;;;;;;5013449;28;20027;-77
2021/08/18 09:35:37;;;;;;;1.40;0.90;;;18.20;99.90;;;;;;5000588;28;20026;-77
2021/08/18 09:38:06;;;;;;;3.25;1.50;;;18.10;99.90;;;;;;5027607;28;20572;-78
2021/08/18 09:40:38;;;;;;;1.40;1.00;;;18.20;99.90;;;;;;5023483;28;20027;-78
2021/08/18 09:43:08;;;;;;;2.60;0.93;;;18.30;99.90;;;;;;5014115;28;20045;-77
2021/08/18 09:45:34;;;;;;;;;;;18.40;99.90;;;;;;5032769;28;20037;-78
2021/08/18 09:48:06;;;;;;;0.95;0.80;;;18.50;99.90;;;;;;5026029;28;19968;-79
2021/08/18 09:50:54;;;;;;;2.35;1.08;;;18.60;99.90;;;;;;5006027;28;20021;-76
2021/08/18 09:53:21;;;;;;;1.38;0.98;;;18.70;99.90;;;;;;5010240;28;20033;-78
2021/08/18 09:56:00;;;;;;;1.90;0.90;;;18.60;99.90;;;;;;5032018;28;20028;-78
2021/08/18 09:58:37;;;;;;;2.03;0.60;;;18.80;99.90;;;;;;5030642;28;20037;-77
2021/08/18 10:01:13;;;;;;;2.50;0.95;;;18.70;99.90;;;;;;5024441;28;20021;-79
2021/08/18 10:03:44;;;;;;;0.95;0.68;;;18.70;99.90;;;;;;5008768;28;20404;-79
2021/08/18 10:06:12;;;;;;;1.30;0.88;;;18.70;99.90;;;;;;5013805;28;20022;-78
2021/08/18 10:08:40;;;;;;;1.17;0.80;;;18.70;99.90;;;;;;5010280;28;20021;-78
2021/08/18 10:11:10;;;;;;;1.02;0.90;;;18.80;99.90;;;;;;5010539;28;20049;-78
2021/08/18 10:13:36;;;;;;;1.15;0.80;;;19.00;99.90;;;;;;5015269;28;20022;-77
2021/08/18 10:16:02;;;;;;;0.80;0.70;;;18.80;99.90;;;;;;5009986;28;20017;-77
2021/08/18 10:18:34;;;;;;;1.33;0.95;;;18.80;99.90;;;;;;5007428;28;20120;-77
2021/08/18 10:21:03;;;;;;;2.17;1.10;;;19.00;99.90;;;;;;5005685;28;20072;-77
2021/08/18 10:23:54;;;;;;;1.45;0.90;;;19.20;99.90;;;;;;5027279;28;20021;-76
2021/08/18 10:26:35;;;;;;;0.77;0.70;;;19.30;99.90;;;;;;5024495;28;20029;-77
2021/08/18 10:29:19;;;;;;;2.35;1.27;;;19.40;99.90;;;;;;5022632;28;20028;-78
2021/08/18 10:31:45;;;;;;;1.08;0.80;;;19.50;99.90;;;;;;5025586;28;20551;-80
2021/08/18 10:34:23;;;;;;;2.30;0.90;;;19.60;99.90;;;;;;5028027;28;20022;-76
2021/08/18 10:36:52;;;;;;;1.92;0.80;;;19.70;99.90;;;;;;5031931;28;20099;-79
2021/08/18 10:39:18;;;;;;;1.75;1.00;;;19.60;99.90;;;;;;5007423;28;20483;-76
2021/08/18 10:42:09;;;;;;;1.10;0.80;;;19.70;99.90;;;;;;5029713;28;20049;-76
2021/08/18 10:44:51;;;;;;;1.15;0.80;;;19.80;99.90;;;;;;5027014;28;20026;-78
2021/08/18 10:47:21;;;;;;;1.27;0.85;;;19.80;99.90;;;;;;5010597;28;20438;-78
2021/08/18 10:49:50;;;;;;;1.77;1.00;;;19.90;99.90;;;;;;5028834;28;20042;-76
2021/08/18 10:52:28;;;;;;;3.80;1.02;;;19.90;99.90;;;;;;5018024;28;20028;-77
2021/08/18 10:55:05;;;;;;;0.90;0.70;;;20.10;99.90;;;;;;5030628;28;20025;-76
2021/08/18 10:57:44;;;;;;;1.33;0.70;;;20.00;99.90;;;;;;5009528;28;20034;-76
2021/08/18 11:00:17;;;;;;;1.27;0.82;;;20.00;99.90;;;;;;5035005;28;20503;-76
2021/08/18 11:02:53;;;;;;;1.92;0.80;;;20.10;99.90;;;;;;5032611;28;20491;-78
2021/08/18 11:05:29;;;;;;;1.73;1.17;;;20.00;99.90;;;;;;5007830;28;20482;-77
2021/08/18 11:08:18;;;;;;;3.30;2.20;;;19.90;99.90;;;;;;5034828;28;20029;-78
2021/08/18 11:10:49;;;;;;;1.17;0.90;;;19.50;99.90;;;;;;5022597;28;20018;-76
2021/08/18 11:13:15;;;;;;;2.05;0.80;;;19.20;99.90;;;;;;5033059;28;20156;-77
2021/08/18 11:15:43;;;;;;;1.38;0.90;;;19.20;99.90;;;;;;5034953;28;20071;-76
2021/08/18 11:18:10;;;;;;;1.58;0.90;;;19.20;99.90;;;;;;5036486;28;20383;-79
2021/08/18 11:20:36;;;;;;;1.73;0.70;;;19.40;99.90;;;;;;5006967;28;20144;-78
2021/08/18 11:23:06;;;;;;;1.65;1.00;;;19.50;99.90;;;;;;5013880;28;20022;-78
2021/08/18 11:25:44;;;;;;;4.53;3.08;;;19.50;99.90;;;;;;5026258;28;20114;-77
2021/08/18 11:28:24;;;;;;;1.33;0.85;;;19.80;99.90;;;;;;5015233;28;20438;-78
2021/08/18 11:31:01;;;;;;;;;;;20.00;99.90;;;;;;5014900;28;20037;-79
2021/08/18 11:33:28;;;;;;;0.88;0.70;;;20.90;99.90;;;;;;5029431;28;19912;-79
2021/08/18 11:35:54;;;;;;;1.10;0.80;;;20.10;99.90;;;;;;5012602;28;20029;-79
2021/08/18 11:38:20;;;;;;;1.10;0.90;;;20.30;99.90;;;;;;5017638;28;20028;-78
2021/08/18 11:40:51;;;;;;;0.75;0.60;;;20.40;99.90;;;;;;5032089;28;20021;-76
2021/08/18 11:43:17;;;;;;;3.00;1.13;;;20.40;99.90;;;;;;5032522;28;20018;-78
2021/08/18 11:45:51;;;;;;;0.60;0.60;;;21.50;99.90;;;;;;5034552;28;20029;-76
2021/08/18 11:48:21;;;;;;;1.95;1.58;;;20.40;99.90;;;;;;5017555;28;20512;-77
2021/08/18 11:50:53;;;;;;;1.48;1.00;;;20.20;99.90;;;;;;5011978;28;20041;-78
2021/08/18 11:53:20;;;;;;;2.22;1.20;;;20.10;99.90;;;;;;5017624;28;21013;-77
2021/08/18 11:55:45;;;;;;;2.50;1.00;;;19.80;99.90;;;;;;5011760;28;20025;-79
2021/08/18 11:58:11;;;;;;;1.88;1.20;;;19.80;99.90;;;;;;5010306;28;20026;-78
2021/08/18 12:00:39;;;;;;;1.70;1.02;;;19.80;99.90;;;;;;5021375;28;20022;-78
2021/08/18 12:03:05;;;;;;;2.00;1.15;;;19.90;99.90;;;;;;5012849;28;20052;-77
2021/08/18 12:05:33;;;;;;;1.83;1.05;;;19.70;99.90;;;;;;5033960;28;20025;-78
2021/08/18 12:08:07;;;;;;;1.30;0.80;;;19.60;99.90;;;;;;5029034;28;20057;-77
2021/08/18 12:10:47;;;;;;;2.67;1.20;;;19.60;99.90;;;;;;5027379;28;20024;-78
2021/08/18 12:13:15;;;;;;;2.88;1.00;;;19.80;99.90;;;;;;5007265;28;20043;-75
2021/08/18 12:15:46;;;;;;;0.90;0.70;;;20.10;99.90;;;;;;5028274;28;20131;-77
2021/08/18 12:18:32;;;;;;;3.38;1.05;;;20.10;99.90;;;;;;5033862;28;20096;-77
2021/08/18 12:21:27;;;;;;;1.85;0.77;;;20.10;99.90;;;;;;5026251;28;20558;-78
2021/08/18 12:23:55;;;;;;;1.17;0.70;;;20.10;99.90;;;;;;5031158;28;20053;-77
2021/08/18 12:26:32;;;;;;;1.75;0.75;;;20.30;99.90;;;;;;5009472;28;20025;-77
2021/08/18 12:29:00;;;;;;;1.23;0.70;;;20.40;99.90;;;;;;5025293;28;20504;-77
2021/08/18 12:31:59;;;;;;;1.60;0.70;;;20.80;99.90;;;;;;5010843;28;20017;-77
2021/08/18 12:34:30;;;;;;;0.43;0.40;;;20.70;99.90;;;;;;5031447;28;20013;-78
2021/08/18 12:37:10;;;;;;;1.38;0.60;;;20.90;99.90;;;;;;5008905;28;20292;-78
2021/08/18 12:39:41;;;;;;;0.77;0.65;;;21.30;99.90;;;;;;5012336;28;20041;-77
2021/08/18 12:42:07;;;;;;;0.60;0.40;;;21.30;99.90;;;;;;5016785;28;20024;-77
2021/08/18 12:44:36;;;;;;;0.45;0.45;;;21.50;99.90;;;;;;5014107;28;20029;-77
2021/08/18 12:47:08;;;;;;;6.93;0.80;;;21.60;99.90;;;;;;5013347;28;20021;-78
2021/08/18 12:49:35;;;;;;;1.15;0.70;;;21.40;99.90;;;;;;5019742;28;20863;-76
2021/08/18 12:52:04;;;;;;;0.65;0.50;;;21.40;99.90;;;;;;5031955;28;20475;-78
2021/08/18 12:54:29;;;;;;;1.33;0.70;;;21.60;99.90;;;;;;5009423;28;20033;-78